Time;durP1;ratioP1;P1;durP2;ratioP2;P2;SDS_P1;SDS_P2;PMS_P1;PMS_P2;Temp;Humidity;BMP_temperature;BMP_pressure;BME280_temperature;BME280_humidity;BME280_pressure;Samples;Min_cycle;Max_cycle;Signal;HPM_P1;HPM_P2
2022/09/14 00:01:50;;;;;;;;;;;;;;;;;;110030;1253;35824;-30
2022/09/14 00:04:20;;;;;;;;;;;;;;;;;;110153;1253;36257;-33
2022/09/14 00:06:49;;;;;;;;;;;;;;;;;;110028;1252;36246;-34
2022/09/14 00:09:19;;;;;;;;;;;;;;;;;;110045;1253;36310;-34
2022/09/14 00:11:50;;;;;;;;;;;;;;;;;;110033;1253;35709;-34
2022/09/14 00:14:19;;;;;;;;;;;;;;;;;;110036;1253;35543;-34
2022/09/14 00:16:50;;;;;;;;;;;;;;;;;;109986;1253;35837;-34
2022/09/14 00:19:21;;;;;;;;;;;;;;;;;;110024;1254;34481;-34
2022/09/14 00:21:51;;;;;;;;;;;;;;;;;;109987;1253;34605;-34
2022/09/14 00:24:21;;;;;;;;;;;;;;;;;;110021;1253;35794;-33
2022/09/14 00:26:51;;;;;;;;;;;;;;;;;;110008;1253;35780;-33
2022/09/14 00:29:20;;;;;;;;;;;;;;;;;;110035;1253;34675;-33
2022/09/14 00:31:49;;;;;;;;;;;;;;;;;;110007;1253;35706;-34
2022/09/14 00:34:18;;;;;;;;;;;;;;;;;;110062;1253;35722;-34
2022/09/14 00:36:48;;;;;;;;;;;;;;;;;;109980;1253;36181;-34
2022/09/14 00:39:18;;;;;;;;;;;;;;;;;;110008;1253;34253;-34
2022/09/14 00:41:48;;;;;;;;;;;;;;;;;;110033;1254;35771;-34
2022/09/14 00:44:35;;;;;;;;;;;;;;;;;;110013;1254;36159;-34
2022/09/14 00:47:04;;;;;;;;;;;;;;;;;;109987;1252;35932;-34
2022/09/14 00:49:35;;;;;;;;;;;;;;;;;;109983;1252;36233;-30
2022/09/14 00:52:07;;;;;;;;;;;;;;;;;;110026;1253;33194;-30
2022/09/14 00:54:38;;;;;;;;;;;;;;;;;;110058;1252;35796;-30
2022/09/14 00:57:07;;;;;;;;;;;;;;;;;;109967;1253;36204;-30
2022/09/14 00:59:37;;;;;;;;;;;;;;;;;;110015;1253;36197;-30
2022/09/14 01:02:09;;;;;;;;;;;;;;;;;;110017;1253;35862;-30
2022/09/14 01:04:38;;;;;;;;;;;;;;;;;;110008;1253;36227;-30
2022/09/14 01:07:14;;;;;;;;;;;;;;;;;;110021;1252;36522;-30
2022/09/14 01:09:46;;;;;;;;;;;;;;;;;;110032;1252;34327;-30
2022/09/14 01:12:21;;;;;;;;;;;;;;;;;;110032;1253;36184;-30
2022/09/14 01:14:54;;;;;;;;;;;;;;;;;;109927;1253;36266;-30
2022/09/14 01:17:27;;;;;;;;;;;;;;;;;;109987;1253;36179;-30
2022/09/14 01:20:07;;;;;;;;;;;;;;;;;;109998;1253;35342;-30
2022/09/14 01:22:38;;;;;;;;;;;;;;;;;;110064;1253;35788;-30
2022/09/14 01:25:12;;;;;;;;;;;;;;;;;;110033;1253;36204;-30
2022/09/14 01:27:42;;;;;;;;;;;;;;;;;;109996;1253;34500;-30
2022/09/14 01:30:14;;;;;;;;;;;;;;;;;;110016;1253;35718;-30
2022/09/14 01:32:45;;;;;;;;;;;;;;;;;;110003;1252;36307;-30
2022/09/14 01:35:17;;;;;;;;;;;;;;;;;;110025;1252;36154;-30
2022/09/14 01:37:48;;;;;;;;;;;;;;;;;;109985;1253;34285;-30
2022/09/14 01:40:20;;;;;;;;;;;;;;;;;;110004;1253;33943;-30
2022/09/14 01:42:51;;;;;;;;;;;;;;;;;;110001;1253;35901;-30
2022/09/14 01:45:22;;;;;;;;;;;;;;;;;;110028;1253;36212;-30
2022/09/14 01:47:53;;;;;;;;;;;;;;;;;;109976;1253;36209;-30
2022/09/14 01:50:24;;;;;;;;;;;;;;;;;;110037;1252;35753;-30
2022/09/14 01:52:55;;;;;;;;;;;;;;;;;;110040;1252;35704;-30
2022/09/14 01:55:27;;;;;;;;;;;;;;;;;;110049;1252;36100;-30
2022/09/14 01:58:00;;;;;;;;;;;;;;;;;;110006;1252;36254;-30
2022/09/14 02:00:29;;;;;;;;;;;;;;;;;;110050;1253;36291;-30
2022/09/14 02:03:00;;;;;;;;;;;;;;;;;;110011;1253;35664;-30
2022/09/14 02:05:33;;;;;;;;;;;;;;;;;;110019;1253;34318;-30
2022/09/14 02:08:02;;;;;;;;;;;;;;;;;;109998;1253;36150;-30
2022/09/14 02:10:31;;;;;;;;;;;;;;;;;;110079;1252;35999;-30
2022/09/14 02:13:01;;;;;;;;;;;;;;;;;;110039;1253;36436;-30
2022/09/14 02:15:29;;;;;;;;;;;;;;;;;;110029;1252;34471;-30
2022/09/14 02:17:58;;;;;;;;;;;;;;;;;;109974;1252;36514;-30
2022/09/14 02:20:32;;;;;;;;;;;;;;;;;;110015;1253;35770;-30
2022/09/14 02:23:01;;;;;;;;;;;;;;;;;;110040;1253;35414;-30
2022/09/14 02:25:31;;;;;;;;;;;;;;;;;;110023;1253;35732;-30
2022/09/14 02:27:59;;;;;;;;;;;;;;;;;;109984;1253;36320;-30
2022/09/14 02:30:32;;;;;;;;;;;;;;;;;;110040;1253;36093;-30
2022/09/14 02:33:07;;;;;;;;;;;;;;;;;;110013;1252;36321;-30
2022/09/14 02:35:39;;;;;;;;;;;;;;;;;;110013;1253;36455;-30
2022/09/14 02:38:12;;;;;;;;;;;;;;;;;;109994;1252;36258;-30
2022/09/14 02:40:43;;;;;;;;;;;;;;;;;;110051;1253;36575;-30
2022/09/14 02:43:19;;;;;;;;;;;;;;;;;;110024;1253;35734;-30
2022/09/14 02:45:54;;;;;;;;;;;;;;;;;;110037;1253;34500;-30
2022/09/14 02:48:26;;;;;;;;;;;;;;;;;;110011;1253;36445;-30
2022/09/14 02:50:57;;;;;;;;;;;;;;;;;;110044;1253;36060;-30
2022/09/14 02:53:30;;;;;;;;;;;;;;;;;;110030;1253;35803;-30
2022/09/14 02:56:00;;;;;;;;;;;;;;;;;;110035;1252;35799;-30
2022/09/14 02:58:35;;;;;;;;;;;;;;;;;;110011;1252;35699;-30
2022/09/14 03:01:05;;;;;;;;;;;;;;;;;;110052;1253;36361;-30
2022/09/14 03:03:34;;;;;;;;;;;;;;;;;;110046;1253;35716;-30
2022/09/14 03:06:04;;;;;;;;;;;;;;;;;;110030;1253;36102;-30
2022/09/14 03:08:33;;;;;;;;;;;;;;;;;;110014;1253;36105;-30
2022/09/14 03:11:02;;;;;;;;;;;;;;;;;;110041;1252;36269;-30
2022/09/14 03:13:33;;;;;;;;;;;;;;;;;;110015;1252;35632;-30
2022/09/14 03:16:05;;;;;;;;;;;;;;;;;;110048;1252;36047;-30
2022/09/14 03:18:35;;;;;;;;;;;;;;;;;;109912;1252;36162;-30
2022/09/14 03:21:09;;;;;;;;;;;;;;;;;;110016;1253;35959;-30
2022/09/14 03:23:38;;;;;;;;;;;;;;;;;;110050;1253;35803;-33
2022/09/14 03:26:09;;;;;;;;;;;;;;;;;;110032;1253;35725;-32
2022/09/14 03:28:38;;;;;;;;;;;;;;;;;;109992;1253;36009;-31
2022/09/14 03:31:08;;;;;;;;;;;;;;;;;;109969;1252;35691;-31
2022/09/14 03:33:37;;;;;;;;;;;;;;;;;;109968;1252;36106;-30
2022/09/14 03:36:13;;;;;;;;;;;;;;;;;;109996;1252;35787;-30
2022/09/14 03:38:44;;;;;;;;;;;;;;;;;;110029;1252;36136;-31
2022/09/14 03:41:13;;;;;;;;;;;;;;;;;;109951;1253;35911;-31
2022/09/14 03:43:43;;;;;;;;;;;;;;;;;;110036;1253;35843;-31
2022/09/14 03:46:13;;;;;;;;;;;;;;;;;;109981;1253;36153;-31
2022/09/14 03:48:43;;;;;;;;;;;;;;;;;;109968;1253;36443;-31
2022/09/14 03:51:13;;;;;;;;;;;;;;;;;;109912;1252;36213;-31
2022/09/14 03:53:43;;;;;;;;;;;;;;;;;;109915;1252;36086;-31
2022/09/14 03:56:14;;;;;;;;;;;;;;;;;;110004;1252;36086;-31
2022/09/14 03:58:43;;;;;;;;;;;;;;;;;;109987;1252;34414;-31
2022/09/14 04:01:14;;;;;;;;;;;;;;;;;;109951;1252;35815;-31
2022/09/14 04:03:43;;;;;;;;;;;;;;;;;;110007;1253;36195;-31
2022/09/14 04:06:14;;;;;;;;;;;;;;;;;;110009;1253;34237;-31
2022/09/14 04:08:44;;;;;;;;;;;;;;;;;;109996;1253;35689;-31
2022/09/14 04:11:14;;;;;;;;;;;;;;;;;;109998;1252;35764;-31
2022/09/14 04:13:44;;;;;;;;;;;;;;;;;;110027;1252;36207;-31
2022/09/14 04:16:14;;;;;;;;;;;;;;;;;;110035;1252;36271;-31
2022/09/14 04:18:43;;;;;;;;;;;;;;;;;;110011;1253;36120;-31
2022/09/14 04:21:15;;;;;;;;;;;;;;;;;;109937;1253;36359;-31
2022/09/14 04:23:45;;;;;;;;;;;;;;;;;;109993;1253;36239;-31
2022/09/14 04:26:19;;;;;;;;;;;;;;;;;;109968;1253;35863;-31
2022/09/14 04:28:49;;;;;;;;;;;;;;;;;;109984;1253;36669;-31
2022/09/14 04:31:18;;;;;;;;;;;;;;;;;;109965;1252;34535;-31
2022/09/14 04:33:49;;;;;;;;;;;;;;;;;;110013;1252;36043;-31
2022/09/14 04:36:19;;;;;;;;;;;;;;;;;;110079;1253;35756;-31
2022/09/14 04:38:52;;;;;;;;;;;;;;;;;;110098;1253;35699;-31
2022/09/14 04:41:22;;;;;;;;;;;;;;;;;;109999;1253;35237;-31
2022/09/14 04:43:53;;;;;;;;;;;;;;;;;;109999;1253;36715;-31
2022/09/14 04:46:23;;;;;;;;;;;;;;;;;;110003;1253;35732;-31
2022/09/14 04:48:52;;;;;;;;;;;;;;;;;;110010;1253;36038;-31
2022/09/14 04:51:22;;;;;;;;;;;;;;;;;;109952;1253;34176;-31
2022/09/14 04:53:53;;;;;;;;;;;;;;;;;;110034;1253;34251;-31
2022/09/14 04:56:23;;;;;;;;;;;;;;;;;;109996;1252;36339;-33
2022/09/14 04:58:54;;;;;;;;;;;;;;;;;;110025;1253;34163;-32
2022/09/14 05:01:24;;;;;;;;;;;;;;;;;;110008;1252;34207;-32
2022/09/14 05:03:53;;;;;;;;;;;;;;;;;;110001;1253;35769;-32
2022/09/14 05:06:23;;;;;;;;;;;;;;;;;;109999;1253;36469;-32
2022/09/14 05:08:53;;;;;;;;;;;;;;;;;;110025;1253;36258;-32
2022/09/14 05:11:23;;;;;;;;;;;;;;;;;;109976;1252;34453;-32
2022/09/14 05:13:52;;;;;;;;;;;;;;;;;;110010;1252;36096;-32
2022/09/14 05:16:22;;;;;;;;;;;;;;;;;;110052;1252;36164;-32
2022/09/14 05:18:53;;;;;;;;;;;;;;;;;;109995;1252;34265;-32
2022/09/14 05:21:24;;;;;;;;;;;;;;;;;;109952;1252;36124;-32
2022/09/14 05:23:57;;;;;;;;;;;;;;;;;;110007;1253;36127;-32
2022/09/14 05:26:27;;;;;;;;;;;;;;;;;;110018;1253;36188;-32
2022/09/14 05:28:57;;;;;;;;;;;;;;;;;;110022;1253;35729;-32
2022/09/14 05:31:27;;;;;;;;;;;;;;;;;;110002;1253;35987;-33
2022/09/14 05:33:56;;;;;;;;;;;;;;;;;;110021;1252;35791;-33
2022/09/14 05:36:26;;;;;;;;;;;;;;;;;;110018;1252;36054;-33
2022/09/14 05:38:56;;;;;;;;;;;;;;;;;;109990;1252;36237;-33
2022/09/14 05:41:27;;;;;;;;;;;;;;;;;;109975;1252;36297;-34
2022/09/14 05:43:57;;;;;;;;;;;;;;;;;;110000;1253;41601;-30
2022/09/14 05:46:27;;;;;;;;;;;;;;;;;;110025;1253;35664;-30
2022/09/14 05:48:56;;;;;;;;;;;;;;;;;;110041;1253;34187;-32
2022/09/14 05:51:26;;;;;;;;;;;;;;;;;;110028;1253;34427;-32
2022/09/14 05:53:56;;;;;;;;;;;;;;;;;;109993;1252;34302;-32
2022/09/14 05:56:26;;;;;;;;;;;;;;;;;;110046;1252;36105;-32
2022/09/14 05:58:57;;;;;;;;;;;;;;;;;;110025;1252;34552;-32
2022/09/14 06:01:27;;;;;;;;;;;;;;;;;;110048;1252;34029;-32
2022/09/14 06:03:59;;;;;;;;;;;;;;;;;;110005;1253;36108;-32
2022/09/14 06:06:28;;;;;;;;;;;;;;;;;;110024;1253;36101;-33
2022/09/14 06:08:58;;;;;;;;;;;;;;;;;;110058;1253;34648;-33
2022/09/14 06:11:29;;;;;;;;;;;;;;;;;;110059;1253;36198;-33
2022/09/14 06:13:59;;;;;;;;;;;;;;;;;;110055;1252;36130;-33
2022/09/14 06:16:29;;;;;;;;;;;;;;;;;;110124;1252;36154;-32
2022/09/14 06:18:59;;;;;;;;;;;;;;;;;;110120;1252;34032;-32
2022/09/14 06:21:30;;;;;;;;;;;;;;;;;;110068;1253;36184;-32
2022/09/14 06:23:59;;;;;;;;;;;;;;;;;;109999;1253;36083;-32
2022/09/14 06:26:28;;;;;;;;;;;;;;;;;;110017;1253;36394;-32
2022/09/14 06:28:57;;;;;;;;;;;;;;;;;;109991;1253;35824;-32
2022/09/14 06:31:26;;;;;;;;;;;;;;;;;;110019;1253;36281;-30
2022/09/14 06:33:56;;;;;;;;;;;;;;;;;;110032;1253;35523;-30
2022/09/14 06:36:25;;;;;;;;;;;;;;;;;;110061;1252;34269;-33
2022/09/14 06:38:55;;;;;;;;;;;;;;;;;;110075;1252;35895;-33
2022/09/14 06:41:27;;;;;;;;;;;;;;;;;;110037;1252;35802;-30
2022/09/14 06:43:57;;;;;;;;;;;;;;;;;;109955;1253;36089;-30
2022/09/14 06:46:27;;;;;;;;;;;;;;;;;;110001;1253;35747;-33
2022/09/14 06:48:57;;;;;;;;;;;;;;;;;;109988;1253;36178;-33
2022/09/14 06:51:27;;;;;;;;;;;;;;;;;;110007;1253;36200;-33
2022/09/14 06:53:58;;;;;;;;;;;;;;;;;;109982;1252;35832;-33
2022/09/14 06:56:28;;;;;;;;;;;;;;;;;;110081;1253;36139;-33
2022/09/14 06:58:57;;;;;;;;;;;;;;;;;;110092;1252;34651;-33
2022/09/14 07:01:27;;;;;;;;;;;;;;;;;;109978;1253;35869;-33
2022/09/14 07:03:57;;;;;;;;;;;;;;;;;;109953;1252;34494;-33
2022/09/14 07:06:27;;;;;;;;;;;;;;;;;;110010;1253;36253;-33
2022/09/14 07:08:56;;;;;;;;;;;;;;;;;;110016;1253;34439;-33
2022/09/14 07:11:26;;;;;;;;;;;;;;;;;;109983;1253;35831;-33
2022/09/14 07:13:57;;;;;;;;;;;;;;;;;;109898;1252;36127;-33
2022/09/14 07:16:27;;;;;;;;;;;;;;;;;;109609;1252;506451;-30
2022/09/14 07:18:56;;;;;;;;;;;;;;;;;;110044;1252;35785;-32
2022/09/14 07:21:26;;;;;;;;;;;;;;;;;;110044;1252;35766;-32
2022/09/14 07:23:55;;;;;;;;;;;;;;;;;;109987;1252;36356;-32
2022/09/14 07:26:25;;;;;;;;;;;;;;;;;;110010;1253;35722;-34
2022/09/14 07:28:55;;;;;;;;;;;;;;;;;;110033;1253;34414;-35
2022/09/14 07:31:25;;;;;;;;;;;;;;;;;;110022;1253;34010;-35
2022/09/14 07:33:55;;;;;;;;;;;;;;;;;;110000;1252;34262;-35
2022/09/14 07:36:24;;;;;;;;;;;;;;;;;;110029;1252;36178;-36
2022/09/14 07:38:53;;;;;;;;;;;;;;;;;;110025;1252;36184;-35
2022/09/14 07:41:23;;;;;;;;;;;;;;;;;;110039;1252;36314;-35
2022/09/14 07:43:53;;;;;;;;;;;;;;;;;;109986;1252;36258;-35
2022/09/14 07:46:23;;;;;;;;;;;;;;;;;;110022;1253;36153;-35
2022/09/14 07:48:56;;;;;;;;;;;;;;;;;;110007;1253;34379;-35
2022/09/14 07:51:25;;;;;;;;;;;;;;;;;;110040;1253;36182;-35
2022/09/14 07:53:58;;;;;;;;;;;;;;;;;;110025;1253;36330;-35
2022/09/14 07:56:28;;;;;;;;;;;;;;;;;;110128;1252;34332;-35
2022/09/14 07:58:57;;;;;;;;;;;;;;;;;;110052;1252;34642;-35
2022/09/14 08:01:29;;;;;;;;;;;;;;;;;;110017;1252;35725;-35
2022/09/14 08:04:01;;;;;;;;;;;;;;;;;;110019;1252;36228;-35
2022/09/14 08:06:30;;;;;;;;;;;;;;;;;;109944;1253;35495;-35
2022/09/14 08:09:00;;;;;;;;;;;;;;;;;;110012;1253;36377;-35
2022/09/14 08:11:30;;;;;;;;;;;;;;;;;;110053;1253;34222;-35
2022/09/14 08:14:00;;;;;;;;;;;;;;;;;;110043;1253;36126;-35
2022/09/14 08:16:30;;;;;;;;;;;;;;;;;;110035;1252;35613;-36
2022/09/14 08:19:01;;;;;;;;;;;;;;;;;;110130;1252;35865;-35
2022/09/14 08:21:31;;;;;;;;;;;;;;;;;;110085;1252;36249;-35
2022/09/14 08:24:03;;;;;;;;;;;;;;;;;;110121;1252;36070;-35
2022/09/14 08:26:35;;;;;;;;;;;;;;;;;;109980;1252;35876;-35
2022/09/14 08:29:05;;;;;;;;;;;;;;;;;;110021;1253;36248;-35
2022/09/14 08:31:37;;;;;;;;;;;;;;;;;;109985;1253;36567;-35
2022/09/14 08:34:07;;;;;;;;;;;;;;;;;;109987;1253;35857;-35
2022/09/14 08:36:40;;;;;;;;;;;;;;;;;;110046;1252;35859;-35
2022/09/14 08:39:10;;;;;;;;;;;;;;;;;;110106;1252;36267;-35
2022/09/14 08:41:41;;;;;;;;;;;;;;;;;;110078;1252;36303;-35
2022/09/14 08:44:18;;;;;;;;;;;;;;;;;;110130;1252;35764;-35
2022/09/14 08:46:48;;;;;;;;;;;;;;;;;;110020;1253;34434;-35
2022/09/14 08:49:20;;;;;;;;;;;;;;;;;;110025;1253;35916;-35
2022/09/14 08:51:50;;;;;;;;;;;;;;;;;;110028;1253;36344;-35
2022/09/14 08:54:19;;;;;;;;;;;;;;;;;;110046;1253;36022;-35
2022/09/14 08:56:52;;;;;;;;;;;;;;;;;;110049;1252;36350;-35
2022/09/14 08:59:31;;;;;;;;;;;;;;;;;;110134;1252;36473;-36
2022/09/14 09:02:06;;;;;;;;;;;;;;;;;;110098;1252;36607;-35
2022/09/14 09:04:45;;;;;;;;;;;;;;;;;;110125;1252;35801;-35
2022/09/14 09:07:18;;;;;;;;;;;;;;;;;;110028;1253;35773;-35
2022/09/14 09:09:49;;;;;;;;;;;;;;;;;;110035;1253;36198;-35
2022/09/14 09:12:22;;;;;;;;;;;;;;;;;;110052;1253;36197;-35
2022/09/14 09:14:55;;;;;;;;;;;;;;;;;;110027;1253;34048;-35
2022/09/14 09:17:26;;;;;;;;;;;;;;;;;;110050;1252;36240;-35
2022/09/14 09:20:00;;;;;;;;;;;;;;;;;;110046;1252;36937;-36
2022/09/14 09:22:31;;;;;;;;;;;;;;;;;;110106;1252;35744;-35
2022/09/14 09:25:01;;;;;;;;;;;;;;;;;;110102;1252;35770;-35
2022/09/14 09:27:30;;;;;;;;;;;;;;;;;;109982;1252;35834;-35
2022/09/14 09:30:01;;;;;;;;;;;;;;;;;;109985;1253;36178;-35
2022/09/14 09:32:30;;;;;;;;;;;;;;;;;;110034;1253;33592;-35
2022/09/14 09:35:00;;;;;;;;;;;;;;;;;;110010;1253;35822;-35
2022/09/14 09:37:32;;;;;;;;;;;;;;;;;;110046;1252;35725;-35
2022/09/14 09:40:02;;;;;;;;;;;;;;;;;;110122;1252;33908;-35
2022/09/14 09:42:31;;;;;;;;;;;;;;;;;;110120;1252;34544;-35
2022/09/14 09:45:01;;;;;;;;;;;;;;;;;;110083;1253;36130;-35
2022/09/14 09:47:33;;;;;;;;;;;;;;;;;;110023;1253;38164;-35
2022/09/14 09:50:03;;;;;;;;;;;;;;;;;;110031;1253;36198;-35
2022/09/14 09:52:33;;;;;;;;;;;;;;;;;;110016;1253;34629;-35
2022/09/14 09:55:04;;;;;;;;;;;;;;;;;;110037;1253;36227;-35
2022/09/14 09:57:35;;;;;;;;;;;;;;;;;;110018;1252;36543;-35
2022/09/14 10:00:18;;;;;;;;;;;;;;;;;;110035;1253;35723;-35
2022/09/14 10:02:48;;;;;;;;;;;;;;;;;;110043;1252;35824;-35
2022/09/14 10:05:24;;;;;;;;;;;;;;;;;;110065;1252;35711;-35
2022/09/14 10:07:55;;;;;;;;;;;;;;;;;;110015;1252;36337;-35
2022/09/14 10:10:26;;;;;;;;;;;;;;;;;;110038;1253;34453;-35
2022/09/14 10:12:56;;;;;;;;;;;;;;;;;;110070;1253;35722;-35
2022/09/14 10:15:27;;;;;;;;;;;;;;;;;;109990;1253;36306;-35
2022/09/14 10:18:02;;;;;;;;;;;;;;;;;;109977;1252;36236;-35
2022/09/14 10:20:34;;;;;;;;;;;;;;;;;;110025;1252;36339;-35
2022/09/14 10:23:19;;;;;;;;;;;;;;;;;;110029;1252;33559;-35
2022/09/14 10:25:49;;;;;;;;;;;;;;;;;;110102;1252;35727;-35
2022/09/14 10:28:21;;;;;;;;;;;;;;;;;;110030;1252;36325;-35
2022/09/14 10:30:54;;;;;;;;;;;;;;;;;;109987;1253;33956;-35
2022/09/14 10:33:24;;;;;;;;;;;;;;;;;;110010;1253;36339;-35
2022/09/14 10:35:57;;;;;;;;;;;;;;;;;;109993;1253;36204;-35
2022/09/14 10:38:31;;;;;;;;;;;;;;;;;;109980;1252;35915;-35
2022/09/14 10:41:04;;;;;;;;;;;;;;;;;;110044;1253;34069;-35
2022/09/14 10:43:38;;;;;;;;;;;;;;;;;;110081;1252;34058;-35
2022/09/14 10:46:12;;;;;;;;;;;;;;;;;;110066;1252;35878;-35
2022/09/14 10:48:49;;;;;;;;;;;;;;;;;;109998;1253;36268;-35
2022/09/14 10:51:29;;;;;;;;;;;;;;;;;;109980;1253;33142;-35
2022/09/14 10:54:01;;;;;;;;;;;;;;;;;;110036;1253;36277;-35
2022/09/14 10:56:45;;;;;;;;;;;;;;;;;;110035;1253;35816;-35
2022/09/14 10:59:21;;;;;;;;;;;;;;;;;;110048;1252;36152;-35
2022/09/14 11:02:09;;;;;;;;;;;;;;;;;;110086;1252;36220;-35
2022/09/14 11:04:56;;;;;;;;;;;;;;;;;;109811;1253;36243;-35
2022/09/14 11:07:31;;;;;;;;;;;;;;;;;;109943;1254;34441;-35
2022/09/14 11:10:03;;;;;;;;;;;;;;;;;;109969;1252;35911;-35
2022/09/14 11:12:35;;;;;;;;;;;;;;;;;;110003;1253;35737;-35
2022/09/14 11:15:08;;;;;;;;;;;;;;;;;;109941;1253;36476;-35
2022/09/14 11:17:56;;;;;;;;;;;;;;;;;;109992;1253;34322;-35
2022/09/14 11:20:28;;;;;;;;;;;;;;;;;;110092;1252;35842;-35
2022/09/14 11:23:04;;;;;;;;;;;;;;;;;;110144;1253;34440;-35
2022/09/14 11:25:39;;;;;;;;;;;;;;;;;;110120;1252;35775;-35
2022/09/14 11:28:10;;;;;;;;;;;;;;;;;;110094;1252;36197;-35
2022/09/14 11:30:41;;;;;;;;;;;;;;;;;;109983;1253;34029;-35
2022/09/14 11:33:15;;;;;;;;;;;;;;;;;;109998;1253;35830;-35
2022/09/14 11:35:46;;;;;;;;;;;;;;;;;;110069;1253;34327;-35
2022/09/14 11:38:17;;;;;;;;;;;;;;;;;;109982;1253;36303;-35
2022/09/14 11:40:49;;;;;;;;;;;;;;;;;;110077;1252;34064;-35
2022/09/14 11:43:21;;;;;;;;;;;;;;;;;;110129;1253;33538;-35
2022/09/14 11:45:52;;;;;;;;;;;;;;;;;;110121;1252;35882;-35
2022/09/14 11:48:25;;;;;;;;;;;;;;;;;;110110;1252;36035;-35
2022/09/14 11:50:59;;;;;;;;;;;;;;;;;;110011;1253;36374;-35
2022/09/14 11:53:28;;;;;;;;;;;;;;;;;;110040;1253;35699;-34
2022/09/14 11:55:58;;;;;;;;;;;;;;;;;;110038;1253;36255;-34
2022/09/14 11:58:28;;;;;;;;;;;;;;;;;;110033;1253;35747;-34
2022/09/14 12:01:25;;;;;;;;;;;;;;;;;;110046;1253;34584;-34
2022/09/14 12:04:04;;;;;;;;;;;;;;;;;;110155;1252;35851;-34
2022/09/14 12:06:43;;;;;;;;;;;;;;;;;;110113;1252;36210;-34
2022/09/14 12:09:30;;;;;;;;;;;;;;;;;;110083;1253;35789;-34
2022/09/14 12:12:01;;;;;;;;;;;;;;;;;;110015;1253;36606;-34
2022/09/14 12:14:34;;;;;;;;;;;;;;;;;;110055;1253;36133;-34
2022/09/14 12:17:15;;;;;;;;;;;;;;;;;;110021;1253;35162;-34
2022/09/14 12:19:46;;;;;;;;;;;;;;;;;;110011;1253;34385;-34
2022/09/14 12:22:26;;;;;;;;;;;;;;;;;;110144;1252;36360;-34
2022/09/14 12:25:00;;;;;;;;;;;;;;;;;;110134;1252;36146;-34
2022/09/14 12:27:32;;;;;;;;;;;;;;;;;;110104;1253;36516;-35
2022/09/14 12:30:01;;;;;;;;;;;;;;;;;;110081;1252;34247;-35
2022/09/14 12:32:43;;;;;;;;;;;;;;;;;;110059;1253;39567;-35
2022/09/14 12:35:29;;;;;;;;;;;;;;;;;;110044;1253;35712;-35
2022/09/14 12:37:58;;;;;;;;;;;;;;;;;;110040;1253;36384;-35
2022/09/14 12:40:44;;;;;;;;;;;;;;;;;;110039;1253;35805;-35
2022/09/14 12:43:45;;;;;;;;;;;;;;;;;;110101;1252;35252;-35
2022/09/14 12:46:35;;;;;;;;;;;;;;;;;;110100;1252;34278;-35
2022/09/14 12:49:14;;;;;;;;;;;;;;;;;;110092;1252;34253;-35
2022/09/14 12:51:46;;;;;;;;;;;;;;;;;;110017;1253;35904;-35
2022/09/14 12:54:22;;;;;;;;;;;;;;;;;;110023;1253;36494;-35
2022/09/14 12:56:57;;;;;;;;;;;;;;;;;;110036;1253;37127;-35
2022/09/14 12:59:32;;;;;;;;;;;;;;;;;;110047;1253;35825;-35
2022/09/14 13:02:11;;;;;;;;;;;;;;;;;;110023;1252;33531;-35
2022/09/14 13:04:40;;;;;;;;;;;;;;;;;;110128;1252;36253;-35
2022/09/14 13:07:14;;;;;;;;;;;;;;;;;;110103;1252;36255;-35
2022/09/14 13:09:47;;;;;;;;;;;;;;;;;;110093;1253;34164;-34
2022/09/14 13:12:22;;;;;;;;;;;;;;;;;;110004;1252;34056;-34
2022/09/14 13:14:52;;;;;;;;;;;;;;;;;;109977;1253;36332;-34
2022/09/14 13:17:23;;;;;;;;;;;;;;;;;;110004;1253;35812;-34
2022/09/14 13:19:56;;;;;;;;;;;;;;;;;;109998;1253;37083;-34
2022/09/14 13:22:26;;;;;;;;;;;;;;;;;;109921;1253;35968;-34
2022/09/14 13:24:56;;;;;;;;;;;;;;;;;;110014;1252;35761;-34
2022/09/14 13:27:28;;;;;;;;;;;;;;;;;;109986;1252;34371;-34
2022/09/14 13:30:01;;;;;;;;;;;;;;;;;;109958;1252;35898;-35
2022/09/14 13:32:32;;;;;;;;;;;;;;;;;;109914;1252;36426;-35
2022/09/14 13:35:01;;;;;;;;;;;;;;;;;;110034;1253;35795;-35
2022/09/14 13:37:31;;;;;;;;;;;;;;;;;;110006;1253;34148;-35
2022/09/14 13:40:00;;;;;;;;;;;;;;;;;;109999;1253;36163;-35
2022/09/14 13:42:31;;;;;;;;;;;;;;;;;;109991;1253;35762;-35
2022/09/14 13:45:01;;;;;;;;;;;;;;;;;;110113;1253;35841;-35
2022/09/14 13:47:31;;;;;;;;;;;;;;;;;;110046;1252;36425;-35
2022/09/14 13:50:00;;;;;;;;;;;;;;;;;;110114;1253;35804;-35
2022/09/14 13:52:34;;;;;;;;;;;;;;;;;;109989;1252;36294;-35
2022/09/14 13:55:18;;;;;;;;;;;;;;;;;;109967;1253;36381;-35
2022/09/14 13:58:20;;;;;;;;;;;;;;;;;;109903;1253;36819;-35
2022/09/14 14:00:56;;;;;;;;;;;;;;;;;;109387;1258;35413;-35
2022/09/14 14:03:30;;;;;;;;;;;;;;;;;;109417;1258;34618;-35
2022/09/14 14:06:04;;;;;;;;;;;;;;;;;;109794;1253;34576;-35
2022/09/14 14:08:35;;;;;;;;;;;;;;;;;;110042;1253;35863;-35
2022/09/14 14:11:05;;;;;;;;;;;;;;;;;;110079;1252;35292;-35
2022/09/14 14:13:35;;;;;;;;;;;;;;;;;;109941;1253;36027;-35
2022/09/14 14:16:14;;;;;;;;;;;;;;;;;;110010;1253;35814;-35
2022/09/14 14:18:49;;;;;;;;;;;;;;;;;;110033;1253;35880;-34
2022/09/14 14:21:26;;;;;;;;;;;;;;;;;;109969;1253;34515;-34
2022/09/14 14:24:15;;;;;;;;;;;;;;;;;;110004;1252;36333;-34
2022/09/14 14:26:49;;;;;;;;;;;;;;;;;;110064;1252;35214;-34
2022/09/14 14:29:18;;;;;;;;;;;;;;;;;;110075;1253;35929;-34
2022/09/14 14:31:47;;;;;;;;;;;;;;;;;;110037;1253;35850;-34
2022/09/14 14:34:20;;;;;;;;;;;;;;;;;;109954;1253;36342;-35
2022/09/14 14:36:49;;;;;;;;;;;;;;;;;;110002;1253;34389;-34
2022/09/14 14:39:21;;;;;;;;;;;;;;;;;;110022;1253;34350;-34
2022/09/14 14:41:51;;;;;;;;;;;;;;;;;;110001;1253;35837;-34
2022/09/14 14:44:21;;;;;;;;;;;;;;;;;;110073;1252;36216;-34
2022/09/14 14:46:50;;;;;;;;;;;;;;;;;;110076;1252;34518;-34
2022/09/14 14:49:20;;;;;;;;;;;;;;;;;;110114;1252;35888;-34
2022/09/14 14:51:50;;;;;;;;;;;;;;;;;;110057;1252;34413;-34
2022/09/14 14:54:20;;;;;;;;;;;;;;;;;;109976;1253;34516;-35
2022/09/14 14:56:50;;;;;;;;;;;;;;;;;;110020;1253;35761;-35
2022/09/14 14:59:28;;;;;;;;;;;;;;;;;;109982;1253;36366;-35
2022/09/14 15:01:58;;;;;;;;;;;;;;;;;;109994;1253;36161;-35
2022/09/14 15:04:27;;;;;;;;;;;;;;;;;;109997;1253;35860;-35
2022/09/14 15:06:56;;;;;;;;;;;;;;;;;;110050;1253;36175;-35
2022/09/14 15:09:26;;;;;;;;;;;;;;;;;;110065;1253;34436;-35
2022/09/14 15:11:56;;;;;;;;;;;;;;;;;;110116;1253;34309;-35
2022/09/14 15:14:26;;;;;;;;;;;;;;;;;;110001;1252;36235;-35
2022/09/14 15:16:58;;;;;;;;;;;;;;;;;;109406;1253;810970;-35
2022/09/14 15:19:29;;;;;;;;;;;;;;;;;;110004;1253;36166;-35
2022/09/14 15:21:59;;;;;;;;;;;;;;;;;;110001;1253;35901;-35
2022/09/14 15:24:28;;;;;;;;;;;;;;;;;;110006;1253;35801;-35
2022/09/14 15:27:00;;;;;;;;;;;;;;;;;;110081;1253;35771;-35
2022/09/14 15:29:29;;;;;;;;;;;;;;;;;;110047;1253;35797;-35
2022/09/14 15:31:58;;;;;;;;;;;;;;;;;;110071;1252;36197;-35
2022/09/14 15:34:28;;;;;;;;;;;;;;;;;;110008;1252;36160;-35
2022/09/14 15:36:57;;;;;;;;;;;;;;;;;;110023;1253;36277;-35
2022/09/14 15:39:27;;;;;;;;;;;;;;;;;;110050;1253;34445;-35
2022/09/14 15:41:59;;;;;;;;;;;;;;;;;;110001;1253;35970;-35
2022/09/14 15:44:29;;;;;;;;;;;;;;;;;;109988;1253;36227;-35
2022/09/14 15:47:00;;;;;;;;;;;;;;;;;;110066;1253;35831;-35
2022/09/14 15:49:30;;;;;;;;;;;;;;;;;;110075;1253;35548;-35
2022/09/14 15:51:59;;;;;;;;;;;;;;;;;;110076;1253;36154;-34
2022/09/14 15:54:35;;;;;;;;;;;;;;;;;;109922;1253;35871;-30
2022/09/14 15:57:05;;;;;;;;;;;;;;;;;;109979;1253;35837;-31
2022/09/14 15:59:35;;;;;;;;;;;;;;;;;;110018;1253;36753;-32
2022/09/14 16:02:04;;;;;;;;;;;;;;;;;;109991;1253;36257;-32
2022/09/14 16:04:36;;;;;;;;;;;;;;;;;;109961;1253;36264;-33
2022/09/14 16:07:09;;;;;;;;;;;;;;;;;;110106;1253;36572;-32
2022/09/14 16:09:40;;;;;;;;;;;;;;;;;;110053;1253;36842;-32
2022/09/14 16:12:10;;;;;;;;;;;;;;;;;;110037;1253;34658;-31
2022/09/14 16:14:39;;;;;;;;;;;;;;;;;;110005;1253;36025;-33
2022/09/14 16:17:10;;;;;;;;;;;;;;;;;;110022;1253;36267;-31
2022/09/14 16:19:39;;;;;;;;;;;;;;;;;;109982;1253;36043;-31
2022/09/14 16:22:08;;;;;;;;;;;;;;;;;;109978;1253;35882;-31
2022/09/14 16:24:38;;;;;;;;;;;;;;;;;;110012;1253;36265;-32
2022/09/14 16:27:07;;;;;;;;;;;;;;;;;;110040;1253;35847;-31
2022/09/14 16:29:38;;;;;;;;;;;;;;;;;;110029;1253;36036;-33
2022/09/14 16:32:07;;;;;;;;;;;;;;;;;;110078;1253;36255;-32
2022/09/14 16:34:38;;;;;;;;;;;;;;;;;;110008;1253;36741;-31
2022/09/14 16:37:07;;;;;;;;;;;;;;;;;;110143;1253;34406;-31
2022/09/14 16:39:36;;;;;;;;;;;;;;;;;;110169;1253;35987;-31
2022/09/14 16:42:06;;;;;;;;;;;;;;;;;;110168;1253;35824;-31
2022/09/14 16:44:35;;;;;;;;;;;;;;;;;;110164;1251;34058;-31
2022/09/14 16:47:05;;;;;;;;;;;;;;;;;;110010;1253;35945;-31
2022/09/14 16:49:35;;;;;;;;;;;;;;;;;;110046;1253;36442;-29
2022/09/14 16:52:05;;;;;;;;;;;;;;;;;;110071;1253;36298;-32
2022/09/14 16:54:34;;;;;;;;;;;;;;;;;;110054;1253;34664;-33
2022/09/14 16:57:07;;;;;;;;;;;;;;;;;;110073;1254;35805;-33
2022/09/14 16:59:36;;;;;;;;;;;;;;;;;;110126;1251;36296;-33